Ibiza, Spain

12:00 AM CEST on August 22, 2014 (GMT +0200)
Ibiza | Change Station
CLOSE
Current Station
Airport
Location: Ibiza,
Elevation: 56 ft
Nearby Weather Stations

Elev 56 ft 38.88 °N, 1.38 °E | Updated 30 minutes ago

Mostly Cloudy
Mostly Cloudy
79 °F
Feels Like 79 °F
N
5
Wind Variable Wind from SE

Today
High -- | Low -- °F
--% Chance of Precip.
Yesterday
High -- | Low -- °F
Precip. -- in
7:14 AM 8:39 PM
Waning Crescent, 12% visible
Pressure 29.98 in
Visibility 6.2 miles
Clouds Mostly Cloudy 2000 ft
Dew Point 70 °F
Humidity 74%
Rainfall 0.00 in
Snow Depth Not available.
UV 0 out of 12
Pollen Not available.
Air Quality Not available.
Flu Activity Not available.
METAR LEIB 212130Z 13004KT 9999 BKN020 26/21 Q1015 NOSIG

More Conditions Fewer Conditions

Pressure 29.98 in
Visibility 6.2 miles
Clouds Mostly Cloudy 2000 ft
Dew Point 70 °F
Humidity 74%
Rainfall 0.00 in
Snow Depth Not available.
UV 0 out of 12
Pollen Not available.
Air Quality Not available.
Flu Activity Not available.
METAR LEIB 212130Z 13004KT 9999 BKN020 26/21 Q1015 NOSIG

More Conditions Fewer Conditions

10-Day Weather Forecast

Almanac

Astronomy

Aug. 22, 2014 Rise Set
Actual Time 7:14 AM CEST 8:39 PM CEST
Civil Twilight 6:46 AM CEST 9:07 PM CEST
Nautical Twilight 6:12 AM CEST 9:41 PM CEST
Astronomical Twilight 5:37 AM CEST 10:16 PM CEST
Moon 4:24 AM CEST (8/22) 6:38 PM CEST (8/22)
Length of Visible Light 14h 21m
Length of Day
13h 25m
Tomorrow will be 2m 19s shorter.
Waning Crescent, 12% of the Moon is Illuminated
Aug 21
Waning Crescent
Aug 25
New
Sep 2
First Quarter
Sep 8
Full
Sep 15
Last Quarter

Yesterday's Extremes

Country Highs Country Lows

Community

WunderPhotos

Upload Photos

1,746,033 photos uploaded!

WunderBlogs® & News

Nearby

Snow Depth

Not available.

Earthquake Activity

City Distance Mag. Time & Date
No recent earthquake activity has been reported nearby.
Minimum magnitude displayed is 2.5.

Coastal Water Temperatures

Place Temperature
No Stations Reporting

Nearby Weather Stations